Time;durP1;ratioP1;P1;durP2;ratioP2;P2;SDS_P1;SDS_P2;PMS_P1;PMS_P2;Temp;Humidity;BMP_temperature;BMP_pressure;BME280_temperature;BME280_humidity;BME280_pressure;Samples;Min_cycle;Max_cycle;Signal;HPM_P1;HPM_P2
2023/10/07 00:01:04;;;;;;;20.83;13.25;;;19.00;99.90;;;;;;4899145;29;20209;-83
2023/10/07 00:03:32;;;;;;;19.63;12.10;;;19.00;99.90;;;;;;4916884;29;20037;-83
2023/10/07 00:06:01;;;;;;;20.50;12.85;;;19.00;99.90;;;;;;4892591;29;20020;-83
2023/10/07 00:08:28;;;;;;;28.58;13.18;;;19.00;99.90;;;;;;4916247;29;20499;-83
2023/10/07 00:10:59;;;;;;;22.23;12.48;;;19.00;99.90;;;;;;4901309;29;20040;-83
2023/10/07 00:13:33;;;;;;;20.23;12.07;;;19.00;99.90;;;;;;4900767;29;20055;-83
2023/10/07 00:16:01;;;;;;;22.30;13.05;;;19.00;99.90;;;;;;4902067;29;20037;-84
2023/10/07 00:18:28;;;;;;;22.10;13.02;;;19.00;99.90;;;;;;4916632;29;20025;-83
2023/10/07 00:20:55;;;;;;;21.92;12.70;;;19.00;99.90;;;;;;4903499;29;20036;-83
2023/10/07 00:23:28;;;;;;;25.88;14.10;;;19.00;99.90;;;;;;4903715;29;20040;-83
2023/10/07 00:25:57;;;;;;;22.45;12.63;;;19.00;99.90;;;;;;4912960;29;20133;-83
2023/10/07 00:28:32;;;;;;;21.55;12.45;;;19.00;99.90;;;;;;4909568;29;20036;-83
2023/10/07 00:31:05;;;;;;;28.20;13.75;;;19.00;99.90;;;;;;4900520;29;20037;-83
2023/10/07 00:33:46;;;;;;;32.72;13.70;;;19.00;99.90;;;;;;4900324;29;20051;-83
2023/10/07 00:36:17;;;;;;;23.42;12.95;;;19.00;99.90;;;;;;4903362;29;20087;-83
2023/10/07 00:38:47;;;;;;;23.70;13.00;;;19.00;99.90;;;;;;4934262;29;20127;-82
2023/10/07 00:41:18;;;;;;;21.88;12.25;;;19.00;99.90;;;;;;4903260;29;20039;-83
2023/10/07 00:43:45;;;;;;;22.92;12.98;;;18.90;99.90;;;;;;4918961;29;20115;-83
2023/10/07 00:46:27;;;;;;;24.52;12.30;;;19.00;99.90;;;;;;4918821;29;20024;-83
2023/10/07 00:49:09;;;;;;;21.75;11.90;;;18.90;99.90;;;;;;4900065;29;20036;-83
2023/10/07 00:51:42;;;;;;;19.75;12.45;;;18.90;99.90;;;;;;4899921;29;20047;-83
2023/10/07 00:54:18;;;;;;;21.60;11.70;;;18.90;99.90;;;;;;4915683;29;20028;-83
2023/10/07 00:57:06;;;;;;;23.60;13.88;;;18.90;99.90;;;;;;4902897;29;20575;-83
2023/10/07 00:59:36;;;;;;;22.58;12.85;;;18.90;99.90;;;;;;4903041;29;20478;-83
2023/10/07 01:02:06;;;;;;;23.63;12.90;;;18.90;99.90;;;;;;4902970;29;20580;-83
2023/10/07 01:04:40;;;;;;;19.83;12.88;;;18.80;99.90;;;;;;4903014;29;20034;-83
2023/10/07 01:07:09;;;;;;;21.50;12.25;;;18.80;99.90;;;;;;4902577;29;20032;-84
2023/10/07 01:09:35;;;;;;;22.95;13.15;;;18.90;99.90;;;;;;4899558;29;20040;-83
2023/10/07 01:12:02;;;;;;;20.88;12.48;;;18.90;99.90;;;;;;4899731;29;20055;-83
2023/10/07 01:14:33;;;;;;;22.17;12.63;;;18.80;99.90;;;;;;4916056;29;20028;-82
2023/10/07 01:17:00;;;;;;;24.08;12.93;;;18.80;99.90;;;;;;4915079;29;20060;-83
2023/10/07 01:19:35;;;;;;;27.15;12.35;;;18.80;99.90;;;;;;4918319;29;20020;-84
2023/10/07 01:22:15;;;;;;;22.25;12.55;;;18.80;99.90;;;;;;4934273;29;20089;-83
2023/10/07 01:24:44;;;;;;;27.00;12.63;;;18.80;99.90;;;;;;4918034;29;20031;-83
2023/10/07 01:33:04;;;;;;;23.77;13.02;;;18.80;99.90;;;;;;4901561;29;20044;-83
2023/10/07 01:35:33;;;;;;;21.05;13.52;;;18.80;99.90;;;;;;4895999;29;20037;-83
2023/10/07 01:38:08;;;;;;;21.60;12.65;;;18.80;99.90;;;;;;4899198;29;20032;-83
2023/10/07 01:43:19;;;;;;;25.17;13.82;;;18.80;99.90;;;;;;4916878;29;20056;-83
2023/10/07 01:45:48;;;;;;;20.55;13.02;;;18.80;99.90;;;;;;4917618;29;20033;-83
2023/10/07 01:48:17;;;;;;;21.00;12.55;;;18.80;99.90;;;;;;4914617;29;20032;-83
2023/10/07 01:50:46;;;;;;;26.67;12.85;;;18.80;99.90;;;;;;4898902;29;20479;-83
2023/10/07 01:53:14;;;;;;;25.02;13.65;;;18.70;99.90;;;;;;4914725;29;20510;-83
2023/10/07 01:55:43;;;;;;;21.10;12.63;;;18.80;99.90;;;;;;4901887;29;20028;-82
2023/10/07 01:58:14;;;;;;;24.58;13.05;;;18.80;99.90;;;;;;4917666;29;20489;-83
2023/10/07 02:00:49;;;;;;;27.10;13.80;;;18.70;99.90;;;;;;4933134;29;20063;-83
2023/10/07 02:03:37;;;;;;;22.17;13.77;;;18.60;99.90;;;;;;4917618;29;20040;-83
2023/10/07 02:06:05;;;;;;;25.88;13.10;;;18.50;99.90;;;;;;4917568;28;20079;-83
2023/10/07 02:08:31;;;;;;;24.50;13.65;;;18.40;99.90;;;;;;4917560;29;20032;-83
2023/10/07 02:10:58;;;;;;;20.27;13.07;;;18.30;99.90;;;;;;4917466;29;20028;-83
2023/10/07 02:13:29;;;;;;;24.10;12.45;;;18.20;99.90;;;;;;4917559;29;20025;-83
2023/10/07 02:15:56;;;;;;;24.23;12.98;;;18.20;99.90;;;;;;4918269;29;20055;-83
2023/10/07 02:18:22;;;;;;;22.95;12.80;;;18.20;99.90;;;;;;4933049;29;20038;-83
2023/10/07 02:21:07;;;;;;;25.30;12.55;;;18.20;99.90;;;;;;4901612;29;20032;-83
2023/10/07 02:23:37;;;;;;;20.83;13.20;;;18.20;99.90;;;;;;4917139;29;20032;-83
2023/10/07 02:26:17;;;;;;;28.48;13.52;;;18.10;99.90;;;;;;4900701;29;20035;-83
2023/10/07 02:28:45;;;;;;;21.40;13.10;;;18.10;99.90;;;;;;4903594;29;20139;-83
2023/10/07 02:31:18;;;;;;;25.98;12.93;;;18.10;99.90;;;;;;4883906;29;20025;-83
2023/10/07 02:33:53;;;;;;;25.92;14.40;;;18.00;99.90;;;;;;4930614;29;20051;-84
2023/10/07 02:36:51;;;;;;;22.00;13.00;;;18.00;99.90;;;;;;4916989;29;20099;-83
2023/10/07 02:39:19;;;;;;;25.20;13.88;;;18.00;99.90;;;;;;4933438;29;20028;-84
2023/10/07 02:41:46;;;;;;;23.42;13.32;;;17.90;99.90;;;;;;4916416;29;20047;-83
2023/10/07 02:44:17;;;;;;;25.80;13.70;;;17.90;99.90;;;;;;4917001;29;20032;-82
2023/10/07 02:46:52;;;;;;;28.08;13.43;;;17.80;99.90;;;;;;4916969;29;20163;-83
2023/10/07 02:49:21;;;;;;;27.27;14.32;;;17.80;99.90;;;;;;4916844;29;20028;-83
2023/10/07 02:51:57;;;;;;;28.23;15.30;;;17.80;99.90;;;;;;4916087;29;20035;-83
2023/10/07 02:54:32;;;;;;;26.13;14.50;;;17.80;99.90;;;;;;4932396;29;20024;-82
2023/10/07 02:57:09;;;;;;;30.00;15.75;;;17.80;99.90;;;;;;4916691;29;20032;-83
2023/10/07 02:59:50;;;;;;;26.63;14.80;;;17.80;99.90;;;;;;4932433;29;20548;-83
2023/10/07 03:07:41;;;;;;;28.85;15.65;;;17.70;99.90;;;;;;4908378;29;20077;-83
2023/10/07 03:10:18;;;;;;;26.55;15.57;;;17.70;99.90;;;;;;4916376;29;20035;-82
2023/10/07 03:12:57;;;;;;;33.35;16.88;;;17.80;99.90;;;;;;4916271;29;20067;-84
2023/10/07 03:18:03;;;;;;;33.40;19.98;;;17.70;99.90;;;;;;4923129;29;20035;-84
2023/10/07 03:20:31;;;;;;;42.47;22.75;;;17.70;99.90;;;;;;4931918;29;20402;-82
2023/10/07 03:23:17;;;;;;;44.25;24.92;;;17.70;99.90;;;;;;4915411;29;20040;-83
2023/10/07 03:28:21;;;;;;;54.90;27.83;;;17.70;99.90;;;;;;4917701;29;20032;-84
2023/10/07 03:30:52;;;;;;;44.50;24.83;;;17.80;99.90;;;;;;4916359;29;20519;-84
2023/10/07 03:33:32;;;;;;;42.67;21.92;;;17.70;99.90;;;;;;4903740;29;20040;-83
2023/10/07 03:38:29;;;;;;;28.13;17.88;;;17.70;99.90;;;;;;4921143;29;20394;-84
2023/10/07 03:40:56;;;;;;;28.83;17.63;;;17.60;99.90;;;;;;4916226;29;20494;-85
2023/10/07 03:43:26;;;;;;;35.10;17.50;;;17.60;99.90;;;;;;4919081;29;20473;-85
2023/10/07 03:45:57;;;;;;;34.20;18.55;;;17.70;99.90;;;;;;4916383;29;20079;-86
2023/10/07 03:51:14;;;;;;;36.47;17.98;;;17.60;99.90;;;;;;4914111;29;20078;-84
2023/10/07 03:53:54;;;;;;;28.83;17.13;;;17.70;99.90;;;;;;4916000;29;20032;-84
2023/10/07 03:56:24;;;;;;;29.45;16.58;;;17.60;99.90;;;;;;4916200;29;20032;-84
2023/10/07 03:58:53;;;;;;;28.63;15.45;;;17.60;99.90;;;;;;4928942;29;20509;-84
2023/10/07 04:01:22;;;;;;;25.50;15.18;;;17.60;99.90;;;;;;4915938;29;20040;-84
2023/10/07 04:04:11;;;;;;;38.42;19.38;;;17.60;99.90;;;;;;4900593;29;20024;-86
2023/10/07 04:06:39;;;;;;;79.28;38.22;;;17.60;99.90;;;;;;4933233;29;20135;-85
2023/10/07 04:09:05;;;;;;;91.80;47.65;;;17.60;99.90;;;;;;4933297;29;20056;-88
2023/10/07 04:11:34;;;;;;;106.38;53.97;;;17.60;99.90;;;;;;4917852;29;20028;-84
2023/10/07 04:14:07;;;;;;;98.30;52.78;;;17.60;99.90;;;;;;4919223;29;20031;-84
2023/10/07 04:16:36;;;;;;;95.70;50.05;;;17.70;99.90;;;;;;4931853;29;20040;-83
2023/10/07 04:21:50;;;;;;;96.72;47.38;;;17.60;99.90;;;;;;4933707;29;20406;-84
2023/10/07 04:24:20;;;;;;;100.95;47.38;;;17.70;99.90;;;;;;4931679;29;20091;-83
2023/10/07 04:27:03;;;;;;;88.68;42.25;;;17.70;99.90;;;;;;4915710;29;20087;-84
2023/10/07 04:29:31;;;;;;;79.63;40.10;;;17.70;99.90;;;;;;4912942;29;20032;-83
2023/10/07 04:32:05;;;;;;;79.55;36.47;;;17.70;99.90;;;;;;4897796;29;20064;-84
2023/10/07 04:34:35;;;;;;;67.25;33.17;;;17.70;99.90;;;;;;4902354;29;20079;-84
2023/10/07 04:40:33;;;;;;;68.55;33.03;;;17.70;99.90;;;;;;4915551;29;20066;-83
2023/10/07 04:42:59;;;;;;;60.85;28.63;;;17.70;99.90;;;;;;4914494;29;20044;-84
2023/10/07 04:45:36;;;;;;;51.53;26.60;;;17.70;99.90;;;;;;4916493;29;20457;-84
2023/10/07 04:48:40;;;;;;;49.60;26.00;;;17.70;99.90;;;;;;4924282;29;20059;-84
2023/10/07 04:51:03;;;;;;;48.10;25.67;;;17.80;99.90;;;;;;4919598;29;20126;-83
2023/10/07 04:53:39;;;;;;;54.45;24.85;;;17.80;99.90;;;;;;4918909;29;20032;-84
2023/10/07 04:56:07;;;;;;;44.78;24.13;;;17.80;99.90;;;;;;4919842;29;20028;-84
2023/10/07 04:58:33;;;;;;;44.10;23.02;;;17.80;99.90;;;;;;4928990;29;20038;-83
2023/10/07 05:01:22;;;;;;;48.70;23.70;;;17.90;99.90;;;;;;4918779;29;20465;-84
2023/10/07 05:03:55;;;;;;;42.58;21.98;;;18.10;99.90;;;;;;4918442;29;20118;-83
2023/10/07 05:06:23;;;;;;;41.55;22.67;;;18.20;99.90;;;;;;4905422;29;20398;-84
2023/10/07 05:08:49;;;;;;;44.28;22.52;;;18.10;99.90;;;;;;4902857;29;20045;-84
2023/10/07 05:11:19;;;;;;;45.35;22.33;;;18.20;99.90;;;;;;4919470;29;20087;-84
2023/10/07 05:13:46;;;;;;;47.13;22.77;;;18.30;99.90;;;;;;4927358;29;20036;-84
2023/10/07 05:16:14;;;;;;;45.88;23.13;;;18.40;99.90;;;;;;4888800;29;20027;-84
2023/10/07 05:18:42;;;;;;;37.55;21.58;;;18.50;99.90;;;;;;4904622;29;20376;-84
2023/10/07 05:21:11;;;;;;;33.60;19.83;;;18.60;99.90;;;;;;4899734;29;20099;-84
2023/10/07 05:23:41;;;;;;;40.15;21.60;;;18.60;99.90;;;;;;4902741;29;20037;-84
2023/10/07 05:26:17;;;;;;;41.00;20.92;;;18.60;99.90;;;;;;4885310;29;20035;-84
2023/10/07 05:28:46;;;;;;;37.53;20.58;;;18.70;99.90;;;;;;4909536;29;20035;-84
2023/10/07 05:31:17;;;;;;;38.38;20.13;;;18.80;99.90;;;;;;4919358;29;20035;-83
2023/10/07 05:33:44;;;;;;;34.80;19.42;;;18.90;99.90;;;;;;4885628;29;20060;-84
2023/10/07 05:36:17;;;;;;;31.52;18.48;;;19.00;99.90;;;;;;4886041;29;20398;-84
2023/10/07 05:38:45;;;;;;;36.85;17.95;;;19.10;99.90;;;;;;4914072;29;20036;-84
2023/10/07 05:41:12;;;;;;;29.77;17.35;;;19.20;99.90;;;;;;4920713;29;20401;-84
2023/10/07 05:43:43;;;;;;;34.58;17.50;;;19.30;99.90;;;;;;4887245;29;20029;-84
2023/10/07 05:46:13;;;;;;;34.22;17.77;;;19.40;99.90;;;;;;4887190;29;20494;-84
2023/10/07 05:48:40;;;;;;;29.92;17.95;;;19.60;99.90;;;;;;4906268;29;20032;-84
2023/10/07 05:51:07;;;;;;;35.45;17.73;;;19.70;99.90;;;;;;4907939;29;20034;-84
2023/10/07 05:53:42;;;;;;;33.00;18.48;;;19.90;99.90;;;;;;4933865;29;20462;-83
2023/10/07 05:56:10;;;;;;;31.58;18.15;;;20.00;99.90;;;;;;4921730;29;20036;-84
2023/10/07 05:58:38;;;;;;;37.17;19.55;;;20.00;99.90;;;;;;4935862;29;20032;-84
2023/10/07 06:01:06;;;;;;;33.13;19.98;;;20.10;99.90;;;;;;4922157;29;20032;-84
2023/10/07 06:03:32;;;;;;;32.00;20.00;;;20.20;99.90;;;;;;4918601;29;20032;-84
2023/10/07 06:05:59;;;;;;;32.25;18.77;;;20.20;99.90;;;;;;4887867;29;20055;-84
2023/10/07 06:08:27;;;;;;;32.08;18.77;;;20.50;99.90;;;;;;4885592;29;20029;-84
2023/10/07 06:10:56;;;;;;;28.65;17.65;;;21.00;99.90;;;;;;4883386;29;20032;-84
2023/10/07 06:13:26;;;;;;;26.52;18.98;;;21.40;99.90;;;;;;4884126;29;20032;-86
2023/10/07 06:16:04;;;;;;;32.38;19.40;;;21.60;99.90;;;;;;4885058;29;20148;-86
2023/10/07 06:18:34;;;;;;;27.88;18.45;;;21.80;99.90;;;;;;4911519;29;20039;-84
2023/10/07 06:21:27;;;;;;;29.80;21.05;;;22.10;99.90;;;;;;4918509;29;20028;-85
2023/10/07 06:23:58;;;;;;;24.20;19.10;;;22.30;99.90;;;;;;4934106;29;20032;-84
2023/10/07 06:26:25;;;;;;;26.90;20.60;;;22.40;99.90;;;;;;4934543;29;20119;-87
2023/10/07 06:28:52;;;;;;;23.20;20.35;;;22.40;99.90;;;;;;4915339;29;20493;-85
2023/10/07 06:31:33;;;;;;;25.02;20.67;;;22.60;99.90;;;;;;4899593;29;20041;-85
2023/10/07 06:34:14;;;;;;;24.00;21.17;;;22.60;99.90;;;;;;4903595;29;20064;-86
2023/10/07 06:36:41;;;;;;;27.08;21.33;;;22.70;99.90;;;;;;4919241;29;20032;-87
2023/10/07 06:39:07;;;;;;;27.30;20.63;;;22.80;99.90;;;;;;4919169;29;20016;-87
2023/10/07 06:41:35;;;;;;;31.13;22.30;;;22.90;99.90;;;;;;4919387;29;20040;-87
2023/10/07 06:44:03;;;;;;;29.17;21.67;;;23.00;99.90;;;;;;4918401;29;20028;-88
2023/10/07 06:46:45;;;;;;;25.58;22.75;;;23.30;99.90;;;;;;4918947;29;20463;-86
2023/10/07 06:49:18;;;;;;;26.85;22.80;;;23.30;99.90;;;;;;4918321;29;20055;-87
2023/10/07 06:51:45;;;;;;;33.83;23.65;;;23.60;99.90;;;;;;4918236;29;20390;-86
2023/10/07 06:54:14;;;;;;;27.45;23.98;;;23.60;99.90;;;;;;4918129;29;20486;-86
2023/10/07 06:56:40;;;;;;;28.40;24.42;;;23.80;99.90;;;;;;4918621;29;20024;-87
2023/10/07 06:59:07;;;;;;;30.17;23.73;;;23.80;99.90;;;;;;4929638;29;20070;-86
2023/10/07 07:04:10;;;;;;;25.83;21.60;;;23.50;99.90;;;;;;4918304;29;20107;-85
2023/10/07 07:06:46;;;;;;;26.52;21.75;;;23.40;99.90;;;;;;4919008;29;20494;-85
2023/10/07 07:12:09;;;;;;;24.58;20.75;;;23.70;99.90;;;;;;4929990;29;20028;-85
2023/10/07 07:14:52;;;;;;;22.50;20.25;;;23.80;99.90;;;;;;4915300;29;20043;-84
2023/10/07 07:17:29;;;;;;;23.83;21.45;;;24.00;99.90;;;;;;4917042;29;20032;-84
2023/10/07 07:22:38;;;;;;;24.15;21.63;;;24.50;99.90;;;;;;4917555;29;20091;-85
2023/10/07 07:25:11;;;;;;;24.85;22.17;;;24.60;99.90;;;;;;4903057;29;20032;-83
2023/10/07 07:27:45;;;;;;;26.00;21.65;;;24.50;99.90;;;;;;4917109;29;20111;-83
2023/10/07 07:30:19;;;;;;;24.38;21.92;;;24.50;99.90;;;;;;4932676;29;20040;-84
2023/10/07 07:32:59;;;;;;;25.27;22.83;;;24.60;99.90;;;;;;4915391;29;20064;-85
2023/10/07 07:35:39;;;;;;;26.70;23.70;;;24.80;99.90;;;;;;4898081;29;20048;-82
2023/10/07 07:38:29;;;;;;;26.17;23.55;;;25.20;99.90;;;;;;4901661;29;20028;-82
2023/10/07 07:41:05;;;;;;;27.65;24.83;;;25.40;99.90;;;;;;4915548;29;20087;-81
2023/10/07 07:43:40;;;;;;;28.77;25.75;;;25.50;99.90;;;;;;4905735;29;20501;-82
2023/10/07 07:46:18;;;;;;;26.17;23.52;;;25.20;99.90;;;;;;4915824;29;20043;-82
2023/10/07 07:48:48;;;;;;;26.25;23.85;;;25.10;99.90;;;;;;4924238;29;20039;-81
2023/10/07 07:51:16;;;;;;;25.35;22.88;;;25.10;99.90;;;;;;4915070;29;20119;-82
2023/10/07 07:53:46;;;;;;;25.73;23.13;;;25.10;99.90;;;;;;4923783;29;20043;-81
2023/10/07 07:56:13;;;;;;;26.10;23.63;;;25.10;99.90;;;;;;4931310;29;20114;-82
2023/10/07 07:58:47;;;;;;;26.42;23.98;;;25.10;99.90;;;;;;4931221;29;20020;-81
2023/10/07 08:01:23;;;;;;;27.00;24.27;;;24.90;99.90;;;;;;4915699;29;20044;-82
2023/10/07 08:03:50;;;;;;;28.00;25.15;;;25.00;99.90;;;;;;4881151;29;20393;-81
2023/10/07 08:06:25;;;;;;;29.13;26.42;;;25.20;99.90;;;;;;4907319;29;20103;-81
2023/10/07 08:08:53;;;;;;;29.02;26.42;;;25.50;99.90;;;;;;4924813;29;20032;-81
2023/10/07 08:11:21;;;;;;;30.35;27.70;;;25.70;99.90;;;;;;4918508;29;20108;-81
2023/10/07 08:13:53;;;;;;;31.02;28.27;;;25.50;99.90;;;;;;4881060;29;20033;-81
2023/10/07 08:16:19;;;;;;;33.72;27.83;;;25.40;99.90;;;;;;4896571;29;20033;-81
2023/10/07 08:18:49;;;;;;;31.00;28.15;;;25.30;99.90;;;;;;4916421;29;20060;-81
2023/10/07 08:21:16;;;;;;;30.75;27.80;;;25.30;99.90;;;;;;4916253;29;20146;-82
2023/10/07 08:23:44;;;;;;;31.75;28.73;;;25.30;99.90;;;;;;4919330;29;20071;-81
2023/10/07 08:26:20;;;;;;;30.90;28.23;;;25.50;99.90;;;;;;4919305;29;20028;-82
2023/10/07 08:28:59;;;;;;;31.33;28.52;;;25.60;99.90;;;;;;4927662;29;20036;-82
2023/10/07 08:31:45;;;;;;;30.65;28.15;;;25.50;99.90;;;;;;4919481;29;20039;-83
2023/10/07 08:34:15;;;;;;;31.50;28.73;;;25.70;99.90;;;;;;4910334;29;20127;-85
2023/10/07 08:36:43;;;;;;;30.90;28.33;;;25.70;99.90;;;;;;4886523;29;20032;-84
2023/10/07 08:39:10;;;;;;;31.35;28.83;;;25.80;99.90;;;;;;4907023;29;20051;-83
2023/10/07 08:41:41;;;;;;;31.67;28.88;;;25.70;99.90;;;;;;4902201;29;20033;-86
2023/10/07 08:44:15;;;;;;;31.75;28.77;;;25.70;99.90;;;;;;4902119;29;20048;-84
2023/10/07 08:46:53;;;;;;;31.55;28.80;;;25.80;99.90;;;;;;4905327;29;20371;-85
2023/10/07 08:49:27;;;;;;;31.95;28.90;;;25.60;99.90;;;;;;4934783;29;20028;-85
2023/10/07 08:51:59;;;;;;;31.60;28.90;;;25.70;99.90;;;;;;4922579;29;20060;-83
2023/10/07 08:54:27;;;;;;;32.38;29.48;;;25.80;99.90;;;;;;4921940;29;20103;-85
2023/10/07 08:57:09;;;;;;;31.13;28.35;;;25.60;99.90;;;;;;4905312;29;20032;-84
2023/10/07 08:59:35;;;;;;;32.97;29.88;;;25.50;99.90;;;;;;4917561;29;20056;-85
2023/10/07 09:02:04;;;;;;;31.50;28.90;;;25.60;99.90;;;;;;4920658;29;20063;-86
2023/10/07 09:04:31;;;;;;;32.42;29.33;;;25.90;99.90;;;;;;4911221;29;20559;-86
2023/10/07 09:07:11;;;;;;;33.17;30.02;;;25.80;99.90;;;;;;4886341;29;20056;-83
2023/10/07 09:09:39;;;;;;;33.25;30.08;;;25.70;99.90;;;;;;4904592;29;20040;-84
2023/10/07 09:15:07;;;;;;;32.53;29.73;;;25.60;99.90;;;;;;4919727;29;20107;-84
2023/10/07 09:17:35;;;;;;;33.67;30.48;;;25.50;99.90;;;;;;4887264;29;20064;-83
2023/10/07 09:20:02;;;;;;;32.45;29.60;;;25.70;99.90;;;;;;4922592;29;20021;-84
2023/10/07 09:22:35;;;;;;;32.80;29.80;;;25.90;99.90;;;;;;4905473;29;20048;-84
2023/10/07 09:25:16;;;;;;;32.13;29.20;;;25.90;99.90;;;;;;4906049;29;20425;-85
2023/10/07 09:27:56;;;;;;;32.13;29.33;;;26.00;99.90;;;;;;4921523;29;20486;-85
2023/10/07 09:33:17;;;;;;;33.33;30.27;;;26.00;99.90;;;;;;4936288;29;20084;-84
2023/10/07 09:38:44;;;;;;;33.97;30.60;;;26.10;99.90;;;;;;4922483;29;20036;-85
2023/10/07 09:43:51;;;;;;;32.45;29.70;;;25.90;99.90;;;;;;4936543;29;20039;-84
2023/10/07 09:46:25;;;;;;;34.17;31.25;;;26.00;99.90;;;;;;4908145;29;20031;-84
2023/10/07 09:48:52;;;;;;;33.58;30.67;;;26.10;99.90;;;;;;4926674;29;20040;-84
2023/10/07 09:51:28;;;;;;;33.80;30.63;;;26.00;99.90;;;;;;4921082;29;20072;-84
2023/10/07 09:54:22;;;;;;;33.58;30.75;;;26.00;99.90;;;;;;4933774;29;20141;-84
2023/10/07 09:57:29;;;;;;;33.10;30.20;;;25.70;99.90;;;;;;4927694;29;20047;-84
2023/10/07 10:03:20;;;;;;;33.00;30.20;;;25.70;99.90;;;;;;4919475;29;20541;-84
2023/10/07 10:06:25;;;;;;;33.45;30.27;;;25.90;99.90;;;;;;4920060;29;20434;-83
2023/10/07 10:08:58;;;;;;;;;;;25.90;99.90;;;;;;4919956;29;20036;-85
2023/10/07 10:16:51;;;;;;;33.08;30.38;;;25.90;99.90;;;;;;4919901;29;20284;-86
2023/10/07 10:19:47;;;;;;;33.78;30.98;;;26.00;99.90;;;;;;4930969;29;20036;-86
2023/10/07 10:22:23;;;;;;;33.83;30.95;;;25.80;99.90;;;;;;4920129;29;20091;-86
2023/10/07 10:24:54;;;;;;;34.95;31.73;;;25.80;99.90;;;;;;4935906;29;20028;-85
2023/10/07 10:27:21;;;;;;;33.70;31.05;;;25.90;99.90;;;;;;4936005;29;20087;-86
2023/10/07 10:30:21;;;;;;;35.13;32.22;;;25.90;99.90;;;;;;4920185;29;20079;-87
2023/10/07 10:32:40;;;;;;;33.03;30.40;;;25.80;99.90;;;;;;4913454;29;20044;-86
2023/10/07 10:35:10;;;;;;;34.20;31.13;;;25.80;99.90;;;;;;4916373;29;20139;-85
2023/10/07 10:37:37;;;;;;;34.63;31.38;;;26.00;99.90;;;;;;4916368;29;20036;-85
2023/10/07 10:40:15;;;;;;;32.90;30.13;;;26.10;99.90;;;;;;4919998;29;20136;-85
2023/10/07 10:42:47;;;;;;;33.38;30.48;;;26.10;99.90;;;;;;4918673;29;20055;-86
2023/10/07 10:45:24;;;;;;;33.70;30.88;;;26.10;99.90;;;;;;4918509;29;20039;-86
2023/10/07 10:47:55;;;;;;;32.92;30.00;;;26.20;99.90;;;;;;4918633;29;20046;-86
2023/10/07 10:50:24;;;;;;;32.70;29.85;;;26.20;99.90;;;;;;4918720;29;20028;-86
2023/10/07 10:52:54;;;;;;;33.22;30.23;;;26.30;99.90;;;;;;4919511;29;20064;-86
2023/10/07 10:55:24;;;;;;;32.53;29.65;;;26.20;99.90;;;;;;4918892;29;20031;-87
2023/10/07 10:57:53;;;;;;;32.40;29.58;;;26.20;99.90;;;;;;4919060;29;20111;-86
2023/10/07 11:00:22;;;;;;;32.05;29.52;;;26.10;99.90;;;;;;4918985;29;20030;-86
2023/10/07 11:02:55;;;;;;;32.85;29.90;;;26.10;99.90;;;;;;4918484;29;20492;-85
2023/10/07 11:05:25;;;;;;;33.03;30.40;;;26.10;99.90;;;;;;4919076;29;20066;-87
2023/10/07 11:07:54;;;;;;;33.55;30.45;;;26.10;99.90;;;;;;4918027;29;20039;-86
2023/10/07 11:10:22;;;;;;;33.88;30.77;;;26.10;99.90;;;;;;4899777;29;20092;-86
2023/10/07 11:12:52;;;;;;;34.22;30.88;;;26.00;99.90;;;;;;4884477;29;20051;-85
2023/10/07 11:15:27;;;;;;;33.40;30.55;;;26.00;99.90;;;;;;4884438;29;20033;-86
2023/10/07 11:18:15;;;;;;;33.22;30.40;;;26.00;99.90;;;;;;4883609;29;20124;-86
2023/10/07 11:20:49;;;;;;;33.33;29.98;;;26.00;99.90;;;;;;4883808;29;20039;-86
2023/10/07 11:23:27;;;;;;;39.38;30.98;;;26.00;99.90;;;;;;4884702;29;20049;-86
2023/10/07 11:25:55;;;;;;;35.10;31.63;;;26.00;99.90;;;;;;4900504;29;20035;-86
2023/10/07 11:28:33;;;;;;;33.75;30.92;;;25.90;99.90;;;;;;4917765;29;20410;-85
2023/10/07 11:31:06;;;;;;;34.60;31.10;;;25.80;99.90;;;;;;4918080;29;20487;-85
2023/10/07 11:33:51;;;;;;;33.00;30.20;;;25.60;99.90;;;;;;4917094;29;20056;-86
2023/10/07 11:36:24;;;;;;;33.22;30.33;;;25.90;99.90;;;;;;4918040;29;20123;-86
2023/10/07 11:39:06;;;;;;;32.67;29.52;;;25.90;99.90;;;;;;4918945;29;20444;-86
2023/10/07 11:41:41;;;;;;;32.40;29.75;;;25.90;99.90;;;;;;4883759;29;20037;-86
2023/10/07 11:44:19;;;;;;;32.17;29.38;;;25.90;99.90;;;;;;4882199;29;20510;-83
2023/10/07 11:46:50;;;;;;;32.85;29.95;;;25.90;99.90;;;;;;4885602;29;20117;-82
2023/10/07 11:49:21;;;;;;;32.10;29.50;;;25.70;99.90;;;;;;4918540;29;20044;-84
2023/10/07 11:51:48;;;;;;;32.40;29.70;;;25.80;99.90;;;;;;4915946;29;20127;-80
2023/10/07 11:54:15;;;;;;;32.05;29.25;;;25.70;99.90;;;;;;4918034;29;20088;-82
2023/10/07 11:56:48;;;;;;;32.85;29.95;;;25.60;99.90;;;;;;4916995;29;20039;-85
2023/10/07 11:59:19;;;;;;;32.92;29.92;;;25.70;99.90;;;;;;4913239;29;20064;-83
2023/10/07 12:01:52;;;;;;;31.77;29.17;;;25.80;99.90;;;;;;4898191;29;20064;-82
2023/10/07 12:04:21;;;;;;;34.08;30.65;;;25.70;99.90;;;;;;4898359;29;20063;-88
2023/10/07 12:06:50;;;;;;;32.88;30.13;;;26.00;99.90;;;;;;4884136;29;20032;-85
2023/10/07 12:09:23;;;;;;;32.97;29.95;;;25.90;99.90;;;;;;4925226;29;20028;-85
2023/10/07 12:12:02;;;;;;;32.90;30.08;;;26.00;99.90;;;;;;4905588;29;20036;-86
2023/10/07 12:14:33;;;;;;;32.33;29.58;;;25.90;99.90;;;;;;4916093;29;20036;-86
2023/10/07 12:17:07;;;;;;;31.55;28.65;;;25.80;99.90;;;;;;4916595;29;20395;-87
2023/10/07 12:19:41;;;;;;;30.65;28.15;;;25.90;99.90;;;;;;4916617;29;20030;-86
2023/10/07 12:22:13;;;;;;;30.67;28.05;;;26.00;99.90;;;;;;4916000;29;20075;-86
2023/10/07 12:24:41;;;;;;;31.60;28.90;;;25.80;99.90;;;;;;4916564;29;20035;-87
2023/10/07 12:27:10;;;;;;;31.08;28.67;;;25.60;99.90;;;;;;4917036;29;20051;-87
2023/10/07 12:29:38;;;;;;;31.73;29.23;;;25.60;99.90;;;;;;4916459;29;20036;-86
2023/10/07 12:32:06;;;;;;;32.47;29.63;;;25.60;99.90;;;;;;4916562;29;20029;-87
2023/10/07 12:34:32;;;;;;;31.92;29.13;;;25.70;99.90;;;;;;4916422;29;20055;-84
2023/10/07 12:37:05;;;;;;;31.98;29.27;;;25.90;99.90;;;;;;4915992;29;20032;-86
2023/10/07 12:39:39;;;;;;;31.73;29.02;;;25.90;99.90;;;;;;4913426;29;20036;-84
2023/10/07 12:42:07;;;;;;;;;;;25.80;99.90;;;;;;4914436;29;20046;-84
2023/10/07 12:44:34;;;;;;;31.05;28.42;;;25.50;99.90;;;;;;4898608;29;19954;-86
2023/10/07 12:47:00;;;;;;;31.55;28.75;;;25.50;99.90;;;;;;4899399;29;20033;-87
2023/10/07 12:49:40;;;;;;;32.05;29.15;;;25.60;99.90;;;;;;4899223;29;20080;-86
2023/10/07 12:52:09;;;;;;;31.83;29.23;;;25.60;99.90;;;;;;4901076;29;20092;-86
2023/10/07 12:54:37;;;;;;;31.23;28.70;;;25.60;99.90;;;;;;4899915;29;20044;-86
2023/10/07 12:57:04;;;;;;;31.67;29.15;;;25.60;99.90;;;;;;4899044;29;20025;-86
2023/10/07 12:59:35;;;;;;;32.40;29.48;;;25.70;99.90;;;;;;4899585;29;20040;-84
2023/10/07 13:02:03;;;;;;;33.00;29.92;;;25.60;99.90;;;;;;4900366;29;20533;-85
2023/10/07 13:04:37;;;;;;;32.60;29.77;;;25.80;99.90;;;;;;4902620;29;20032;-85
2023/10/07 13:07:10;;;;;;;31.35;28.85;;;25.60;99.90;;;;;;4919469;29;20148;-84
2023/10/07 13:09:42;;;;;;;32.45;29.63;;;25.60;99.90;;;;;;4922599;29;20036;-87
2023/10/07 13:12:15;;;;;;;32.72;29.85;;;25.80;99.90;;;;;;4921293;29;20035;-84
2023/10/07 13:14:45;;;;;;;33.22;30.17;;;25.80;99.90;;;;;;4922604;29;20032;-85
2023/10/07 13:17:13;;;;;;;32.10;29.13;;;25.40;99.90;;;;;;4922476;29;20032;-85
2023/10/07 13:19:43;;;;;;;31.58;28.88;;;25.20;99.90;;;;;;4932685;29;20032;-84
2023/10/07 13:22:18;;;;;;;31.80;28.67;;;25.30;99.90;;;;;;4921318;29;20044;-84
2023/10/07 13:24:46;;;;;;;31.92;29.23;;;25.30;99.90;;;;;;4922194;29;20066;-86
2023/10/07 13:27:15;;;;;;;31.98;29.30;;;25.30;99.90;;;;;;4923389;29;20032;-85
2023/10/07 13:30:12;;;;;;;31.63;28.77;;;25.20;99.90;;;;;;4917277;29;20087;-84
2023/10/07 13:32:52;;;;;;;31.70;29.20;;;25.40;99.90;;;;;;4931307;29;20031;-85
2023/10/07 13:35:29;;;;;;;32.30;29.60;;;25.50;99.90;;;;;;4920851;29;20089;-87
2023/10/07 13:37:56;;;;;;;;;;;25.30;99.90;;;;;;4904300;29;20071;-85
2023/10/07 13:40:23;;;;;;;31.50;28.92;;;25.30;99.90;;;;;;4920858;29;19907;-85
2023/10/07 13:42:51;;;;;;;31.77;29.05;;;25.30;99.90;;;;;;4935393;29;20064;-87
2023/10/07 13:45:21;;;;;;;32.33;29.73;;;25.50;99.90;;;;;;4921515;29;20028;-87
2023/10/07 13:47:49;;;;;;;31.92;29.10;;;25.60;99.90;;;;;;4938483;29;20036;-86
2023/10/07 13:50:31;;;;;;;32.38;29.60;;;25.60;99.90;;;;;;4938149;29;20075;-88
2023/10/07 13:58:14;;;;;;;31.05;28.58;;;25.40;99.90;;;;;;4936068;29;20036;-85